sensor_id;sensor_type;location;lat;lon;timestamp;P1;durP1;ratioP1;P2;durP2;ratioP2
37647;SDS011;23490;53.656;10.076;2022-08-11T00:01:49;8.43;;;2.42;;
37647;SDS011;23490;53.656;10.076;2022-08-11T00:04:17;7.85;;;2.58;;
37647;SDS011;23490;53.656;10.076;2022-08-11T00:06:47;3.50;;;2.08;;
37647;SDS011;23490;53.656;10.076;2022-08-11T00:09:15;8.75;;;2.38;;
37647;SDS011;23490;53.656;10.076;2022-08-11T00:11:53;4.95;;;2.53;;
37647;SDS011;23490;53.656;10.076;2022-08-11T00:14:22;6.15;;;2.47;;
37647;SDS011;23490;53.656;10.076;2022-08-11T00:19:20;7.72;;;2.60;;
37647;SDS011;23490;53.656;10.076;2022-08-11T00:21:48;5.18;;;2.25;;
37647;SDS011;23490;53.656;10.076;2022-08-11T00:24:14;6.15;;;2.45;;
37647;SDS011;23490;53.656;10.076;2022-08-11T00:26:41;4.60;;;2.10;;
37647;SDS011;23490;53.656;10.076;2022-08-11T00:29:12;6.72;;;2.33;;
37647;SDS011;23490;53.656;10.076;2022-08-11T00:31:37;4.80;;;2.20;;
37647;SDS011;23490;53.656;10.076;2022-08-11T00:34:09;4.30;;;2.10;;
37647;SDS011;23490;53.656;10.076;2022-08-11T00:36:42;4.90;;;2.70;;
37647;SDS011;23490;53.656;10.076;2022-08-11T00:39:14;5.95;;;2.78;;
37647;SDS011;23490;53.656;10.076;2022-08-11T01:00:57;3.90;;;2.20;;
37647;SDS011;23490;53.656;10.076;2022-08-11T01:12:02;5.40;;;2.38;;
37647;SDS011;23490;53.656;10.076;2022-08-11T01:15:03;7.38;;;2.33;;
37647;SDS011;23490;53.656;10.076;2022-08-11T01:59:08;6.00;;;2.65;;
37647;SDS011;23490;53.656;10.076;2022-08-11T02:01:26;7.03;;;2.38;;
37647;SDS011;23490;53.656;10.076;2022-08-11T02:10:20;6.22;;;2.55;;
37647;SDS011;23490;53.656;10.076;2022-08-11T02:13:14;6.75;;;2.50;;
37647;SDS011;23490;53.656;10.076;2022-08-11T02:15:53;5.00;;;2.38;;
37647;SDS011;23490;53.656;10.076;2022-08-11T02:18:35;5.20;;;2.67;;
37647;SDS011;23490;53.656;10.076;2022-08-11T02:21:26;4.68;;;2.60;;
37647;SDS011;23490;53.656;10.076;2022-08-11T02:24:23;6.15;;;2.65;;
37647;SDS011;23490;53.656;10.076;2022-08-11T02:27:07;5.80;;;2.53;;
37647;SDS011;23490;53.656;10.076;2022-08-11T02:29:44;7.32;;;2.67;;
37647;SDS011;23490;53.656;10.076;2022-08-11T02:35:17;5.20;;;2.75;;
37647;SDS011;23490;53.656;10.076;2022-08-11T02:38:00;10.07;;;6.23;;
37647;SDS011;23490;53.656;10.076;2022-08-11T02:43:08;7.85;;;3.22;;
37647;SDS011;23490;53.656;10.076;2022-08-11T02:45:53;6.38;;;2.92;;
37647;SDS011;23490;53.656;10.076;2022-08-11T02:51:38;7.03;;;3.03;;
37647;SDS011;23490;53.656;10.076;2022-08-11T02:57:01;6.53;;;2.80;;
37647;SDS011;23490;53.656;10.076;2022-08-11T03:13:45;4.18;;;2.40;;
37647;SDS011;23490;53.656;10.076;2022-08-11T03:16:43;4.20;;;2.30;;
37647;SDS011;23490;53.656;10.076;2022-08-11T03:30:22;5.32;;;2.58;;
37647;SDS011;23490;53.656;10.076;2022-08-11T03:33:04;4.40;;;2.67;;
37647;SDS011;23490;53.656;10.076;2022-08-11T03:38:55;5.53;;;2.78;;
37647;SDS011;23490;53.656;10.076;2022-08-11T03:41:36;5.00;;;2.80;;
37647;SDS011;23490;53.656;10.076;2022-08-11T03:44:21;5.03;;;2.53;;
37647;SDS011;23490;53.656;10.076;2022-08-11T03:46:55;4.20;;;2.55;;
37647;SDS011;23490;53.656;10.076;2022-08-11T03:49:52;4.55;;;2.60;;
37647;SDS011;23490;53.656;10.076;2022-08-11T04:00:53;5.82;;;2.80;;
37647;SDS011;23490;53.656;10.076;2022-08-11T04:12:03;6.70;;;2.92;;
37647;SDS011;23490;53.656;10.076;2022-08-11T04:18:18;4.45;;;2.70;;
37647;SDS011;23490;53.656;10.076;2022-08-11T04:26:46;4.07;;;2.75;;
37647;SDS011;23490;53.656;10.076;2022-08-11T04:35:39;5.55;;;3.03;;
37647;SDS011;23490;53.656;10.076;2022-08-11T04:53:09;7.15;;;2.83;;
37647;SDS011;23490;53.656;10.076;2022-08-11T04:56:14;5.80;;;3.00;;
37647;SDS011;23490;53.656;10.076;2022-08-11T04:59:13;5.55;;;2.75;;
37647;SDS011;23490;53.656;10.076;2022-08-11T05:05:25;6.60;;;2.95;;
37647;SDS011;23490;53.656;10.076;2022-08-11T05:08:20;6.05;;;3.35;;
37647;SDS011;23490;53.656;10.076;2022-08-11T05:16:53;5.15;;;2.70;;
37647;SDS011;23490;53.656;10.076;2022-08-11T05:19:44;6.38;;;3.03;;
37647;SDS011;23490;53.656;10.076;2022-08-11T05:22:29;6.18;;;3.20;;
37647;SDS011;23490;53.656;10.076;2022-08-11T05:25:15;6.40;;;3.30;;
37647;SDS011;23490;53.656;10.076;2022-08-11T05:28:04;5.35;;;2.83;;
37647;SDS011;23490;53.656;10.076;2022-08-11T05:30:48;5.15;;;2.97;;
37647;SDS011;23490;53.656;10.076;2022-08-11T05:36:59;5.47;;;3.17;;
37647;SDS011;23490;53.656;10.076;2022-08-11T05:39:30;9.27;;;3.10;;
37647;SDS011;23490;53.656;10.076;2022-08-11T05:42:22;7.40;;;3.30;;
37647;SDS011;23490;53.656;10.076;2022-08-11T05:45:11;7.78;;;3.33;;
37647;SDS011;23490;53.656;10.076;2022-08-11T05:47:58;7.35;;;3.05;;
37647;SDS011;23490;53.656;10.076;2022-08-11T05:53:57;6.75;;;3.22;;
37647;SDS011;23490;53.656;10.076;2022-08-11T05:56:49;7.10;;;3.30;;
37647;SDS011;23490;53.656;10.076;2022-08-11T05:59:18;10.05;;;3.20;;
37647;SDS011;23490;53.656;10.076;2022-08-11T06:01:46;7.05;;;2.85;;
37647;SDS011;23490;53.656;10.076;2022-08-11T06:04:17;7.47;;;3.13;;
37647;SDS011;23490;53.656;10.076;2022-08-11T06:06:51;5.45;;;2.88;;
37647;SDS011;23490;53.656;10.076;2022-08-11T06:09:23;5.30;;;2.78;;
37647;SDS011;23490;53.656;10.076;2022-08-11T06:11:51;7.55;;;3.58;;
37647;SDS011;23490;53.656;10.076;2022-08-11T06:14:18;9.38;;;3.17;;
37647;SDS011;23490;53.656;10.076;2022-08-11T06:16:48;5.60;;;2.45;;
37647;SDS011;23490;53.656;10.076;2022-08-11T06:19:18;4.28;;;2.92;;
37647;SDS011;23490;53.656;10.076;2022-08-11T06:21:47;5.43;;;2.72;;
37647;SDS011;23490;53.656;10.076;2022-08-11T06:24:15;5.03;;;2.70;;
37647;SDS011;23490;53.656;10.076;2022-08-11T06:26:49;5.38;;;2.55;;
37647;SDS011;23490;53.656;10.076;2022-08-11T06:29:16;7.18;;;3.00;;
37647;SDS011;23490;53.656;10.076;2022-08-11T06:31:52;5.03;;;2.28;;
37647;SDS011;23490;53.656;10.076;2022-08-11T06:37:59;4.70;;;2.55;;
37647;SDS011;23490;53.656;10.076;2022-08-11T06:40:16;4.32;;;2.50;;
37647;SDS011;23490;53.656;10.076;2022-08-11T06:45:56;6.10;;;2.53;;
37647;SDS011;23490;53.656;10.076;2022-08-11T06:48:27;4.78;;;2.53;;
37647;SDS011;23490;53.656;10.076;2022-08-11T06:50:56;4.97;;;2.38;;
37647;SDS011;23490;53.656;10.076;2022-08-11T06:56:15;6.13;;;2.47;;
37647;SDS011;23490;53.656;10.076;2022-08-11T06:59:05;4.90;;;2.15;;
37647;SDS011;23490;53.656;10.076;2022-08-11T07:01:57;4.63;;;2.30;;
37647;SDS011;23490;53.656;10.076;2022-08-11T07:04:43;6.00;;;2.40;;
37647;SDS011;23490;53.656;10.076;2022-08-11T07:07:19;4.38;;;2.40;;
37647;SDS011;23490;53.656;10.076;2022-08-11T07:10:32;6.70;;;2.10;;
37647;SDS011;23490;53.656;10.076;2022-08-11T07:13:16;5.63;;;1.90;;
37647;SDS011;23490;53.656;10.076;2022-08-11T07:16:04;9.05;;;2.10;;
37647;SDS011;23490;53.656;10.076;2022-08-11T07:18:31;4.90;;;2.15;;
37647;SDS011;23490;53.656;10.076;2022-08-11T07:21:21;4.43;;;2.30;;
37647;SDS011;23490;53.656;10.076;2022-08-11T07:24:17;6.68;;;1.75;;
37647;SDS011;23490;53.656;10.076;2022-08-11T07:27:05;6.18;;;2.03;;
37647;SDS011;23490;53.656;10.076;2022-08-11T07:30:06;3.17;;;2.17;;
37647;SDS011;23490;53.656;10.076;2022-08-11T07:32:36;5.40;;;1.80;;
37647;SDS011;23490;53.656;10.076;2022-08-11T07:35:12;3.38;;;1.90;;
37647;SDS011;23490;53.656;10.076;2022-08-11T07:37:42;6.03;;;2.00;;
37647;SDS011;23490;53.656;10.076;2022-08-11T07:40:15;7.35;;;2.20;;
37647;SDS011;23490;53.656;10.076;2022-08-11T07:42:47;3.20;;;1.80;;
37647;SDS011;23490;53.656;10.076;2022-08-11T07:45:13;5.32;;;1.55;;
37647;SDS011;23490;53.656;10.076;2022-08-11T07:47:58;3.33;;;1.77;;
37647;SDS011;23490;53.656;10.076;2022-08-11T07:50:43;3.45;;;1.58;;
37647;SDS011;23490;53.656;10.076;2022-08-11T07:53:28;3.75;;;1.67;;
37647;SDS011;23490;53.656;10.076;2022-08-11T07:55:55;5.50;;;1.70;;
37647;SDS011;23490;53.656;10.076;2022-08-11T07:58:22;3.90;;;2.22;;
37647;SDS011;23490;53.656;10.076;2022-08-11T08:01:08;6.13;;;1.95;;
37647;SDS011;23490;53.656;10.076;2022-08-11T08:03:54;7.07;;;2.15;;
37647;SDS011;23490;53.656;10.076;2022-08-11T08:06:42;5.63;;;2.20;;
37647;SDS011;23490;53.656;10.076;2022-08-11T08:09:27;4.90;;;1.80;;
37647;SDS011;23490;53.656;10.076;2022-08-11T08:12:16;5.53;;;2.03;;
37647;SDS011;23490;53.656;10.076;2022-08-11T08:15:07;4.40;;;2.08;;
37647;SDS011;23490;53.656;10.076;2022-08-11T08:17:53;4.80;;;1.77;;
37647;SDS011;23490;53.656;10.076;2022-08-11T08:20:25;4.68;;;2.00;;
37647;SDS011;23490;53.656;10.076;2022-08-11T08:22:53;3.85;;;1.65;;
37647;SDS011;23490;53.656;10.076;2022-08-11T08:25:25;7.00;;;1.55;;
37647;SDS011;23490;53.656;10.076;2022-08-11T08:27:53;6.07;;;2.17;;
37647;SDS011;23490;53.656;10.076;2022-08-11T08:30:20;4.32;;;1.80;;
37647;SDS011;23490;53.656;10.076;2022-08-11T08:33:04;3.20;;;2.10;;
37647;SDS011;23490;53.656;10.076;2022-08-11T08:35:30;2.70;;;1.65;;
37647;SDS011;23490;53.656;10.076;2022-08-11T08:37:56;4.00;;;1.80;;
37647;SDS011;23490;53.656;10.076;2022-08-11T08:40:24;5.82;;;2.13;;
37647;SDS011;23490;53.656;10.076;2022-08-11T08:42:54;5.63;;;2.45;;
37647;SDS011;23490;53.656;10.076;2022-08-11T08:45:22;3.58;;;2.15;;
37647;SDS011;23490;53.656;10.076;2022-08-11T08:47:59;4.18;;;2.20;;
37647;SDS011;23490;53.656;10.076;2022-08-11T08:50:29;4.90;;;1.90;;
37647;SDS011;23490;53.656;10.076;2022-08-11T08:53:19;3.45;;;1.60;;
37647;SDS011;23490;53.656;10.076;2022-08-11T08:55:46;2.95;;;1.70;;
37647;SDS011;23490;53.656;10.076;2022-08-11T08:58:14;4.30;;;1.80;;
37647;SDS011;23490;53.656;10.076;2022-08-11T09:00:44;3.58;;;1.80;;
37647;SDS011;23490;53.656;10.076;2022-08-11T09:03:11;4.32;;;1.90;;
37647;SDS011;23490;53.656;10.076;2022-08-11T09:05:38;4.45;;;1.70;;
37647;SDS011;23490;53.656;10.076;2022-08-11T09:08:05;5.72;;;1.80;;
37647;SDS011;23490;53.656;10.076;2022-08-11T09:10:30;3.78;;;1.73;;
37647;SDS011;23490;53.656;10.076;2022-08-11T09:12:57;2.83;;;1.27;;
37647;SDS011;23490;53.656;10.076;2022-08-11T09:15:24;2.67;;;1.83;;
37647;SDS011;23490;53.656;10.076;2022-08-11T09:17:52;3.42;;;1.88;;
37647;SDS011;23490;53.656;10.076;2022-08-11T09:20:27;4.95;;;1.80;;
37647;SDS011;23490;53.656;10.076;2022-08-11T09:22:58;3.22;;;1.73;;
37647;SDS011;23490;53.656;10.076;2022-08-11T09:25:53;2.35;;;1.50;;
37647;SDS011;23490;53.656;10.076;2022-08-11T09:28:43;4.25;;;1.60;;
37647;SDS011;23490;53.656;10.076;2022-08-11T09:31:10;2.65;;;1.50;;
37647;SDS011;23490;53.656;10.076;2022-08-11T09:33:37;4.03;;;1.50;;
37647;SDS011;23490;53.656;10.076;2022-08-11T09:36:04;3.30;;;1.50;;
37647;SDS011;23490;53.656;10.076;2022-08-11T09:38:51;5.28;;;1.85;;
37647;SDS011;23490;53.656;10.076;2022-08-11T09:41:36;1.92;;;1.30;;
37647;SDS011;23490;53.656;10.076;2022-08-11T09:44:04;3.90;;;1.60;;
37647;SDS011;23490;53.656;10.076;2022-08-11T09:46:50;2.45;;;1.50;;
37647;SDS011;23490;53.656;10.076;2022-08-11T09:49:18;3.83;;;1.60;;
37647;SDS011;23490;53.656;10.076;2022-08-11T09:51:46;9.50;;;2.15;;
37647;SDS011;23490;53.656;10.076;2022-08-11T09:54:13;5.70;;;1.70;;
37647;SDS011;23490;53.656;10.076;2022-08-11T09:56:41;3.75;;;2.17;;
37647;SDS011;23490;53.656;10.076;2022-08-11T09:59:25;5.18;;;1.45;;
37647;SDS011;23490;53.656;10.076;2022-08-11T10:01:54;3.88;;;1.70;;
37647;SDS011;23490;53.656;10.076;2022-08-11T10:04:27;4.35;;;1.40;;
37647;SDS011;23490;53.656;10.076;2022-08-11T10:06:59;3.38;;;1.50;;
37647;SDS011;23490;53.656;10.076;2022-08-11T10:09:26;2.28;;;1.35;;
37647;SDS011;23490;53.656;10.076;2022-08-11T10:11:58;3.47;;;1.50;;
37647;SDS011;23490;53.656;10.076;2022-08-11T10:14:27;4.28;;;1.27;;
37647;SDS011;23490;53.656;10.076;2022-08-11T10:17:15;3.35;;;1.60;;
37647;SDS011;23490;53.656;10.076;2022-08-11T10:19:44;4.97;;;1.48;;
37647;SDS011;23490;53.656;10.076;2022-08-11T10:24:57;3.00;;;1.70;;
37647;SDS011;23490;53.656;10.076;2022-08-11T10:27:41;4.88;;;1.50;;
37647;SDS011;23490;53.656;10.076;2022-08-11T10:30:08;2.55;;;1.20;;
37647;SDS011;23490;53.656;10.076;2022-08-11T10:32:53;2.20;;;1.30;;
37647;SDS011;23490;53.656;10.076;2022-08-11T10:35:39;2.10;;;1.30;;
37647;SDS011;23490;53.656;10.076;2022-08-11T10:38:07;3.10;;;1.60;;
37647;SDS011;23490;53.656;10.076;2022-08-11T10:40:33;3.47;;;2.00;;
37647;SDS011;23490;53.656;10.076;2022-08-11T10:42:59;4.53;;;2.67;;
37647;SDS011;23490;53.656;10.076;2022-08-11T10:45:37;5.18;;;2.80;;
37647;SDS011;23490;53.656;10.076;2022-08-11T10:48:24;6.45;;;2.70;;
37647;SDS011;23490;53.656;10.076;2022-08-11T10:50:51;3.70;;;2.15;;
37647;SDS011;23490;53.656;10.076;2022-08-11T10:53:38;3.33;;;2.47;;
37647;SDS011;23490;53.656;10.076;2022-08-11T10:56:24;5.65;;;2.30;;
37647;SDS011;23490;53.656;10.076;2022-08-11T10:59:11;2.55;;;1.90;;
37647;SDS011;23490;53.656;10.076;2022-08-11T11:01:41;4.07;;;2.05;;
37647;SDS011;23490;53.656;10.076;2022-08-11T11:04:15;2.83;;;1.80;;
37647;SDS011;23490;53.656;10.076;2022-08-11T11:06:53;3.15;;;1.40;;
37647;SDS011;23490;53.656;10.076;2022-08-11T11:09:36;4.90;;;1.30;;
37647;SDS011;23490;53.656;10.076;2022-08-11T11:14:53;5.63;;;1.50;;
37647;SDS011;23490;53.656;10.076;2022-08-11T11:17:41;3.15;;;1.27;;
37647;SDS011;23490;53.656;10.076;2022-08-11T11:20:22;4.13;;;1.58;;
37647;SDS011;23490;53.656;10.076;2022-08-11T11:22:53;1.98;;;1.30;;
37647;SDS011;23490;53.656;10.076;2022-08-11T11:25:33;2.78;;;1.58;;
37647;SDS011;23490;53.656;10.076;2022-08-11T11:28:27;2.25;;;1.10;;
37647;SDS011;23490;53.656;10.076;2022-08-11T11:39:18;2.00;;;1.05;;
37647;SDS011;23490;53.656;10.076;2022-08-11T11:41:47;1.63;;;0.90;;
37647;SDS011;23490;53.656;10.076;2022-08-11T11:44:13;2.10;;;1.10;;
37647;SDS011;23490;53.656;10.076;2022-08-11T11:46:39;4.22;;;1.10;;
37647;SDS011;23490;53.656;10.076;2022-08-11T11:49:06;6.00;;;1.10;;
37647;SDS011;23490;53.656;10.076;2022-08-11T11:51:35;8.23;;;1.17;;
37647;SDS011;23490;53.656;10.076;2022-08-11T11:54:01;2.97;;;1.33;;
37647;SDS011;23490;53.656;10.076;2022-08-11T11:56:28;2.95;;;1.10;;
37647;SDS011;23490;53.656;10.076;2022-08-11T11:58:55;3.17;;;1.00;;
37647;SDS011;23490;53.656;10.076;2022-08-11T12:01:39;1.55;;;1.40;;
37647;SDS011;23490;53.656;10.076;2022-08-11T12:04:07;3.47;;;1.20;;
37647;SDS011;23490;53.656;10.076;2022-08-11T12:06:35;1.67;;;1.27;;
37647;SDS011;23490;53.656;10.076;2022-08-11T12:09:01;2.72;;;1.00;;
37647;SDS011;23490;53.656;10.076;2022-08-11T12:11:28;1.50;;;1.00;;
37647;SDS011;23490;53.656;10.076;2022-08-11T12:14:15;2.25;;;1.10;;
37647;SDS011;23490;53.656;10.076;2022-08-11T12:16:43;1.20;;;1.10;;
37647;SDS011;23490;53.656;10.076;2022-08-11T12:19:17;1.80;;;1.10;;
37647;SDS011;23490;53.656;10.076;2022-08-11T12:21:45;1.77;;;1.10;;
37647;SDS011;23490;53.656;10.076;2022-08-11T12:24:38;2.67;;;1.02;;
37647;SDS011;23490;53.656;10.076;2022-08-11T12:27:24;2.38;;;1.38;;
37647;SDS011;23490;53.656;10.076;2022-08-11T12:30:01;3.33;;;1.10;;
37647;SDS011;23490;53.656;10.076;2022-08-11T12:32:35;1.95;;;1.00;;
37647;SDS011;23490;53.656;10.076;2022-08-11T12:35:03;1.67;;;0.90;;
37647;SDS011;23490;53.656;10.076;2022-08-11T12:37:30;1.65;;;1.00;;
37647;SDS011;23490;53.656;10.076;2022-08-11T12:39:59;1.73;;;1.00;;
37647;SDS011;23490;53.656;10.076;2022-08-11T12:42:49;2.45;;;1.15;;
37647;SDS011;23490;53.656;10.076;2022-08-11T12:45:53;1.98;;;0.98;;
37647;SDS011;23490;53.656;10.076;2022-08-11T12:48:22;2.20;;;1.13;;
37647;SDS011;23490;53.656;10.076;2022-08-11T12:51:11;1.48;;;0.90;;
37647;SDS011;23490;53.656;10.076;2022-08-11T12:54:07;2.35;;;1.10;;
37647;SDS011;23490;53.656;10.076;2022-08-11T12:56:37;2.17;;;1.25;;
37647;SDS011;23490;53.656;10.076;2022-08-11T12:59:25;2.17;;;1.00;;
37647;SDS011;23490;53.656;10.076;2022-08-11T13:02:11;1.55;;;0.95;;
37647;SDS011;23490;53.656;10.076;2022-08-11T13:04:59;0.98;;;0.88;;
37647;SDS011;23490;53.656;10.076;2022-08-11T13:07:27;2.70;;;1.00;;
37647;SDS011;23490;53.656;10.076;2022-08-11T13:09:54;4.65;;;1.20;;
37647;SDS011;23490;53.656;10.076;2022-08-11T13:12:24;2.50;;;0.82;;
37647;SDS011;23490;53.656;10.076;2022-08-11T13:15:10;1.23;;;1.00;;
37647;SDS011;23490;53.656;10.076;2022-08-11T13:17:38;1.60;;;1.02;;
37647;SDS011;23490;53.656;10.076;2022-08-11T13:20:05;1.85;;;1.25;;
37647;SDS011;23490;53.656;10.076;2022-08-11T13:22:34;1.77;;;0.98;;
37647;SDS011;23490;53.656;10.076;2022-08-11T13:25:01;2.03;;;1.00;;
37647;SDS011;23490;53.656;10.076;2022-08-11T13:27:28;1.10;;;1.00;;
37647;SDS011;23490;53.656;10.076;2022-08-11T13:29:54;2.92;;;1.20;;
37647;SDS011;23490;53.656;10.076;2022-08-11T13:32:40;6.53;;;1.27;;
37647;SDS011;23490;53.656;10.076;2022-08-11T13:35:08;1.40;;;1.05;;
37647;SDS011;23490;53.656;10.076;2022-08-11T13:37:38;1.27;;;1.00;;
37647;SDS011;23490;53.656;10.076;2022-08-11T13:40:03;1.92;;;1.17;;
37647;SDS011;23490;53.656;10.076;2022-08-11T13:42:29;3.15;;;1.15;;
37647;SDS011;23490;53.656;10.076;2022-08-11T13:44:55;2.80;;;1.17;;
37647;SDS011;23490;53.656;10.076;2022-08-11T13:47:21;1.17;;;0.90;;
37647;SDS011;23490;53.656;10.076;2022-08-11T13:49:48;2.83;;;1.25;;
37647;SDS011;23490;53.656;10.076;2022-08-11T13:52:15;5.25;;;1.10;;
37647;SDS011;23490;53.656;10.076;2022-08-11T13:54:42;2.83;;;1.00;;
37647;SDS011;23490;53.656;10.076;2022-08-11T13:57:11;1.10;;;1.00;;
37647;SDS011;23490;53.656;10.076;2022-08-11T13:59:39;2.78;;;1.20;;
37647;SDS011;23490;53.656;10.076;2022-08-11T14:02:05;2.13;;;1.42;;
37647;SDS011;23490;53.656;10.076;2022-08-11T14:04:40;3.13;;;1.00;;
37647;SDS011;23490;53.656;10.076;2022-08-11T14:07:09;3.72;;;1.10;;
37647;SDS011;23490;53.656;10.076;2022-08-11T14:09:39;2.72;;;0.98;;
37647;SDS011;23490;53.656;10.076;2022-08-11T14:12:29;1.75;;;1.20;;
37647;SDS011;23490;53.656;10.076;2022-08-11T14:15:20;2.85;;;1.08;;
37647;SDS011;23490;53.656;10.076;2022-08-11T14:17:57;1.65;;;1.27;;
37647;SDS011;23490;53.656;10.076;2022-08-11T14:20:27;2.90;;;1.10;;
37647;SDS011;23490;53.656;10.076;2022-08-11T14:23:18;3.35;;;1.10;;
37647;SDS011;23490;53.656;10.076;2022-08-11T14:25:58;2.90;;;1.35;;
37647;SDS011;23490;53.656;10.076;2022-08-11T14:28:42;3.38;;;1.00;;
37647;SDS011;23490;53.656;10.076;2022-08-11T14:31:08;3.90;;;0.98;;
37647;SDS011;23490;53.656;10.076;2022-08-11T14:33:34;3.47;;;1.20;;
37647;SDS011;23490;53.656;10.076;2022-08-11T14:36:01;5.45;;;1.23;;
37647;SDS011;23490;53.656;10.076;2022-08-11T14:38:30;1.75;;;1.38;;
37647;SDS011;23490;53.656;10.076;2022-08-11T14:40:57;1.90;;;1.13;;
37647;SDS011;23490;53.656;10.076;2022-08-11T14:43:42;3.55;;;1.40;;
37647;SDS011;23490;53.656;10.076;2022-08-11T14:46:26;5.20;;;1.30;;
37647;SDS011;23490;53.656;10.076;2022-08-11T14:49:11;3.65;;;1.23;;
37647;SDS011;23490;53.656;10.076;2022-08-11T14:51:39;3.95;;;1.48;;
37647;SDS011;23490;53.656;10.076;2022-08-11T14:54:05;4.78;;;1.33;;
37647;SDS011;23490;53.656;10.076;2022-08-11T14:56:49;3.42;;;1.30;;
37647;SDS011;23490;53.656;10.076;2022-08-11T14:59:15;4.45;;;1.27;;
37647;SDS011;23490;53.656;10.076;2022-08-11T15:01:40;4.40;;;1.27;;
37647;SDS011;23490;53.656;10.076;2022-08-11T15:04:25;3.58;;;1.20;;
37647;SDS011;23490;53.656;10.076;2022-08-11T15:06:51;3.90;;;1.20;;
37647;SDS011;23490;53.656;10.076;2022-08-11T15:09:17;3.75;;;1.40;;
37647;SDS011;23490;53.656;10.076;2022-08-11T15:11:42;2.47;;;1.40;;
37647;SDS011;23490;53.656;10.076;2022-08-11T15:14:27;2.00;;;1.20;;
37647;SDS011;23490;53.656;10.076;2022-08-11T15:17:13;2.45;;;1.10;;
37647;SDS011;23490;53.656;10.076;2022-08-11T15:19:40;3.13;;;1.23;;
37647;SDS011;23490;53.656;10.076;2022-08-11T15:22:25;4.38;;;1.30;;
37647;SDS011;23490;53.656;10.076;2022-08-11T15:25:10;4.03;;;1.40;;
37647;SDS011;23490;53.656;10.076;2022-08-11T15:27:35;2.70;;;1.38;;
37647;SDS011;23490;53.656;10.076;2022-08-11T15:30:21;2.75;;;1.20;;
37647;SDS011;23490;53.656;10.076;2022-08-11T15:33:07;4.57;;;1.48;;
37647;SDS011;23490;53.656;10.076;2022-08-11T15:35:53;3.10;;;1.58;;
37647;SDS011;23490;53.656;10.076;2022-08-11T15:38:40;3.53;;;1.30;;
37647;SDS011;23490;53.656;10.076;2022-08-11T15:41:08;2.28;;;1.30;;
37647;SDS011;23490;53.656;10.076;2022-08-11T15:43:57;2.08;;;1.27;;
37647;SDS011;23490;53.656;10.076;2022-08-11T15:46:44;3.40;;;1.30;;
37647;SDS011;23490;53.656;10.076;2022-08-11T15:49:13;3.20;;;1.48;;
37647;SDS011;23490;53.656;10.076;2022-08-11T15:54:15;3.55;;;1.38;;
37647;SDS011;23490;53.656;10.076;2022-08-11T15:56:43;6.88;;;1.20;;
37647;SDS011;23490;53.656;10.076;2022-08-11T15:59:10;4.25;;;1.35;;
37647;SDS011;23490;53.656;10.076;2022-08-11T16:01:57;2.50;;;1.30;;
37647;SDS011;23490;53.656;10.076;2022-08-11T16:04:44;2.28;;;1.20;;
37647;SDS011;23490;53.656;10.076;2022-08-11T16:07:13;3.17;;;1.20;;
37647;SDS011;23490;53.656;10.076;2022-08-11T16:09:41;4.60;;;1.20;;
37647;SDS011;23490;53.656;10.076;2022-08-11T16:12:16;2.45;;;1.20;;
37647;SDS011;23490;53.656;10.076;2022-08-11T16:14:45;5.40;;;1.42;;
37647;SDS011;23490;53.656;10.076;2022-08-11T16:17:36;2.40;;;1.23;;
37647;SDS011;23490;53.656;10.076;2022-08-11T16:20:08;2.92;;;1.20;;
37647;SDS011;23490;53.656;10.076;2022-08-11T16:22:36;3.55;;;1.30;;
37647;SDS011;23490;53.656;10.076;2022-08-11T16:25:11;5.45;;;1.20;;
37647;SDS011;23490;53.656;10.076;2022-08-11T16:27:47;4.03;;;1.15;;
37647;SDS011;23490;53.656;10.076;2022-08-11T16:30:19;2.75;;;0.98;;
37647;SDS011;23490;53.656;10.076;2022-08-11T16:32:47;3.15;;;1.20;;
37647;SDS011;23490;53.656;10.076;2022-08-11T16:35:18;7.18;;;1.27;;
37647;SDS011;23490;53.656;10.076;2022-08-11T16:38:04;3.10;;;1.30;;
37647;SDS011;23490;53.656;10.076;2022-08-11T16:40:50;1.55;;;1.05;;
37647;SDS011;23490;53.656;10.076;2022-08-11T16:43:18;3.45;;;1.30;;
37647;SDS011;23490;53.656;10.076;2022-08-11T16:46:06;2.63;;;1.10;;
37647;SDS011;23490;53.656;10.076;2022-08-11T16:48:55;2.90;;;1.10;;
37647;SDS011;23490;53.656;10.076;2022-08-11T16:51:24;4.93;;;1.50;;
37647;SDS011;23490;53.656;10.076;2022-08-11T16:53:49;3.83;;;1.20;;
37647;SDS011;23490;53.656;10.076;2022-08-11T16:56:19;4.32;;;1.10;;
37647;SDS011;23490;53.656;10.076;2022-08-11T16:58:49;4.47;;;1.45;;
37647;SDS011;23490;53.656;10.076;2022-08-11T17:01:36;4.65;;;1.15;;
37647;SDS011;23490;53.656;10.076;2022-08-11T17:07:11;2.58;;;1.15;;
37647;SDS011;23490;53.656;10.076;2022-08-11T17:09:57;2.97;;;1.20;;
37647;SDS011;23490;53.656;10.076;2022-08-11T17:12:45;2.95;;;1.30;;
37647;SDS011;23490;53.656;10.076;2022-08-11T17:15:32;2.78;;;1.38;;
37647;SDS011;23490;53.656;10.076;2022-08-11T17:18:18;3.22;;;0.95;;
37647;SDS011;23490;53.656;10.076;2022-08-11T17:24:04;4.95;;;1.40;;
37647;SDS011;23490;53.656;10.076;2022-08-11T17:26:34;3.88;;;1.45;;
37647;SDS011;23490;53.656;10.076;2022-08-11T17:32:00;2.15;;;0.90;;
37647;SDS011;23490;53.656;10.076;2022-08-11T17:34:47;2.53;;;1.20;;
37647;SDS011;23490;53.656;10.076;2022-08-11T17:37:33;3.10;;;1.05;;
37647;SDS011;23490;53.656;10.076;2022-08-11T17:40:02;2.25;;;1.20;;
37647;SDS011;23490;53.656;10.076;2022-08-11T17:42:30;4.70;;;1.20;;
37647;SDS011;23490;53.656;10.076;2022-08-11T17:45:17;3.92;;;1.23;;
37647;SDS011;23490;53.656;10.076;2022-08-11T17:48:03;2.63;;;1.00;;
37647;SDS011;23490;53.656;10.076;2022-08-11T17:50:48;2.53;;;1.00;;
37647;SDS011;23490;53.656;10.076;2022-08-11T17:53:30;1.50;;;0.95;;
37647;SDS011;23490;53.656;10.076;2022-08-11T17:56:19;3.95;;;0.90;;
37647;SDS011;23490;53.656;10.076;2022-08-11T17:59:04;2.25;;;1.10;;
37647;SDS011;23490;53.656;10.076;2022-08-11T18:01:51;6.25;;;1.35;;
37647;SDS011;23490;53.656;10.076;2022-08-11T18:04:17;4.20;;;1.20;;
37647;SDS011;23490;53.656;10.076;2022-08-11T18:06:44;2.25;;;1.00;;
37647;SDS011;23490;53.656;10.076;2022-08-11T18:09:12;3.28;;;1.17;;
37647;SDS011;23490;53.656;10.076;2022-08-11T18:11:59;6.10;;;1.35;;
37647;SDS011;23490;53.656;10.076;2022-08-11T18:14:46;5.15;;;1.92;;
37647;SDS011;23490;53.656;10.076;2022-08-11T18:17:33;3.88;;;1.63;;
37647;SDS011;23490;53.656;10.076;2022-08-11T18:20:18;3.53;;;1.52;;
37647;SDS011;23490;53.656;10.076;2022-08-11T18:23:03;6.85;;;4.47;;
37647;SDS011;23490;53.656;10.076;2022-08-11T18:25:52;4.70;;;2.63;;
37647;SDS011;23490;53.656;10.076;2022-08-11T18:28:42;5.63;;;3.55;;
37647;SDS011;23490;53.656;10.076;2022-08-11T18:31:28;6.00;;;1.73;;
37647;SDS011;23490;53.656;10.076;2022-08-11T18:34:16;5.00;;;1.95;;
37647;SDS011;23490;53.656;10.076;2022-08-11T18:37:10;4.60;;;1.60;;
37647;SDS011;23490;53.656;10.076;2022-08-11T18:39:59;5.32;;;1.35;;
37647;SDS011;23490;53.656;10.076;2022-08-11T18:42:47;4.97;;;1.50;;
37647;SDS011;23490;53.656;10.076;2022-08-11T18:45:32;3.03;;;1.20;;
37647;SDS011;23490;53.656;10.076;2022-08-11T18:48:19;3.33;;;1.10;;
37647;SDS011;23490;53.656;10.076;2022-08-11T18:51:07;2.40;;;1.20;;
37647;SDS011;23490;53.656;10.076;2022-08-11T18:53:55;2.97;;;1.50;;
37647;SDS011;23490;53.656;10.076;2022-08-11T18:56:43;4.38;;;1.60;;
37647;SDS011;23490;53.656;10.076;2022-08-11T18:59:28;3.33;;;1.40;;
37647;SDS011;23490;53.656;10.076;2022-08-11T19:02:17;3.92;;;1.10;;
37647;SDS011;23490;53.656;10.076;2022-08-11T19:05:05;4.25;;;1.30;;
37647;SDS011;23490;53.656;10.076;2022-08-11T19:07:51;5.75;;;1.67;;